Time;durP1;ratioP1;P1;durP2;ratioP2;P2;SDS_P1;SDS_P2;PMS_P1;PMS_P2;Temp;Humidity;BMP_temperature;BMP_pressure;BME280_temperature;BME280_humidity;BME280_pressure;Samples;Min_cycle;Max_cycle;Signal;HPM_P1;HPM_P2
2022/01/29 00:01:33;;;;;;;42.40;21.73;;;7.40;99.90;;;;;;5133413;27;20426;-75
2022/01/29 00:03:59;;;;;;;45.28;21.92;;;7.30;99.90;;;;;;5133373;27;20072;-75
2022/01/29 00:06:25;;;;;;;46.17;19.92;;;7.40;99.90;;;;;;5132337;27;20066;-75
2022/01/29 00:08:56;;;;;;;44.90;22.02;;;7.30;99.90;;;;;;5133708;27;20026;-74
2022/01/29 00:11:27;;;;;;;44.47;20.85;;;7.40;99.90;;;;;;5133518;28;20106;-74
2022/01/29 00:13:53;;;;;;;39.25;20.55;;;7.40;99.90;;;;;;5132692;28;20015;-74
2022/01/29 00:16:24;;;;;;;44.33;21.30;;;7.40;99.90;;;;;;5133076;28;20041;-74
2022/01/29 00:18:50;;;;;;;36.92;18.15;;;7.90;99.90;;;;;;5133529;28;20024;-73
2022/01/29 00:21:19;;;;;;;40.45;18.63;;;7.40;99.90;;;;;;5132446;28;20031;-74
2022/01/29 00:23:44;;;;;;;41.85;19.23;;;7.40;99.90;;;;;;5133804;27;20023;-73
2022/01/29 00:26:20;;;;;;;37.20;19.30;;;7.40;99.90;;;;;;5133096;27;20022;-74
2022/01/29 00:28:45;;;;;;;44.47;18.17;;;7.40;99.90;;;;;;5132563;27;20029;-74
2022/01/29 00:31:11;;;;;;;33.25;17.88;;;7.40;99.90;;;;;;5134238;27;20083;-74
2022/01/29 00:33:38;;;;;;;41.35;17.50;;;7.50;99.90;;;;;;5145435;27;20034;-74
2022/01/29 00:36:04;;;;;;;31.50;17.10;;;7.40;99.90;;;;;;5132994;27;20107;-74
2022/01/29 00:38:30;;;;;;;32.05;15.82;;;7.50;99.90;;;;;;5133155;28;20053;-74
2022/01/29 00:40:56;;;;;;;34.03;16.25;;;7.50;99.90;;;;;;5133397;28;20058;-76
2022/01/29 00:43:21;;;;;;;38.00;17.08;;;7.50;99.90;;;;;;5138463;28;20026;-75
2022/01/29 00:45:47;;;;;;;32.50;15.60;;;7.50;99.90;;;;;;5134154;28;20075;-74
2022/01/29 00:48:12;;;;;;;35.78;15.88;;;7.50;99.90;;;;;;5140982;28;20090;-74
2022/01/29 00:50:38;;;;;;;29.45;16.30;;;7.60;99.90;;;;;;5132312;27;20056;-74
2022/01/29 00:53:03;;;;;;;21.27;12.40;;;7.60;99.90;;;;;;5132987;28;20034;-75
2022/01/29 00:55:29;;;;;;;28.90;15.50;;;7.60;99.90;;;;;;5132224;27;20023;-75
2022/01/29 00:57:55;;;;;;;31.52;15.40;;;7.60;99.90;;;;;;5133392;28;20019;-73
2022/01/29 01:00:20;;;;;;;26.63;14.70;;;7.70;99.90;;;;;;5134675;27;20043;-74
2022/01/29 01:02:46;;;;;;;22.83;14.95;;;7.70;99.90;;;;;;5135914;27;20035;-74
2022/01/29 01:05:12;;;;;;;26.75;14.75;;;7.60;99.90;;;;;;5136347;27;20485;-75
2022/01/29 01:07:38;;;;;;;27.73;15.23;;;7.60;99.90;;;;;;5136701;27;20027;-75
2022/01/29 01:10:11;;;;;;;32.97;14.85;;;7.60;99.90;;;;;;5136268;27;20103;-75
2022/01/29 01:12:37;;;;;;;32.58;15.75;;;7.60;99.90;;;;;;5136416;27;20106;-74
2022/01/29 01:15:05;;;;;;;25.52;14.82;;;7.60;99.90;;;;;;5136196;27;20106;-74
2022/01/29 01:17:30;;;;;;;29.10;15.35;;;7.70;99.90;;;;;;5135250;27;20501;-74
2022/01/29 01:19:56;;;;;;;28.77;14.88;;;7.60;99.90;;;;;;5136519;27;20047;-74
2022/01/29 01:22:22;;;;;;;29.55;14.63;;;7.60;99.90;;;;;;5136035;27;20114;-74
2022/01/29 01:24:47;;;;;;;24.00;14.75;;;7.70;99.90;;;;;;5135476;27;20052;-74
2022/01/29 01:27:16;;;;;;;27.08;15.43;;;7.70;99.90;;;;;;5136164;27;20039;-75
2022/01/29 01:29:42;;;;;;;27.85;14.65;;;7.70;99.90;;;;;;5135966;27;20102;-74
2022/01/29 01:32:11;;;;;;;32.47;14.18;;;7.70;99.90;;;;;;5135315;27;20024;-75
2022/01/29 01:34:42;;;;;;;25.80;14.68;;;7.70;99.90;;;;;;5136549;27;20020;-75
2022/01/29 01:37:13;;;;;;;25.38;13.15;;;7.70;99.90;;;;;;5136578;27;20027;-75
2022/01/29 01:39:40;;;;;;;20.92;13.10;;;7.70;99.90;;;;;;5135861;27;20016;-74
2022/01/29 01:42:07;;;;;;;22.00;11.32;;;7.70;99.90;;;;;;5137699;27;20047;-75
2022/01/29 01:44:43;;;;;;;21.15;11.43;;;7.70;99.90;;;;;;5136360;27;20043;-74
2022/01/29 01:47:09;;;;;;;20.02;12.18;;;7.70;99.90;;;;;;5136026;27;20054;-75
2022/01/29 01:49:35;;;;;;;24.60;12.48;;;7.70;99.90;;;;;;5136605;27;20015;-74
2022/01/29 01:52:01;;;;;;;23.15;12.68;;;7.70;99.90;;;;;;5135335;27;20113;-74
2022/01/29 01:54:27;;;;;;;22.05;11.27;;;7.70;99.90;;;;;;5137170;27;20046;-73
2022/01/29 01:56:52;;;;;;;22.23;11.15;;;7.70;99.90;;;;;;5135750;27;20050;-74
2022/01/29 01:59:18;;;;;;;19.52;10.88;;;7.70;99.90;;;;;;5135045;27;20063;-74
2022/01/29 02:01:44;;;;;;;17.67;10.07;;;7.80;99.90;;;;;;5135516;27;20055;-74
2022/01/29 02:04:09;;;;;;;17.38;10.45;;;7.80;99.90;;;;;;5135233;27;20068;-74
2022/01/29 02:06:35;;;;;;;15.05;8.75;;;7.80;99.90;;;;;;5135092;27;20031;-74
2022/01/29 02:09:01;;;;;;;18.75;11.30;;;7.80;99.90;;;;;;5135780;27;20042;-74
2022/01/29 02:11:28;;;;;;;18.63;11.00;;;7.80;99.90;;;;;;5135447;27;20035;-73
2022/01/29 02:13:57;;;;;;;17.15;11.57;;;7.80;99.90;;;;;;5135135;27;20038;-73
2022/01/29 02:16:23;;;;;;;16.25;10.88;;;7.90;99.90;;;;;;5135285;27;20023;-75
2022/01/29 02:18:49;;;;;;;21.88;11.70;;;7.80;99.90;;;;;;5135357;27;20022;-73
2022/01/29 02:21:16;;;;;;;24.27;12.50;;;7.80;99.90;;;;;;5134517;27;20132;-73
2022/01/29 02:23:42;;;;;;;21.42;12.07;;;7.90;99.90;;;;;;5120809;27;20360;-73
2022/01/29 02:26:07;;;;;;;18.25;12.45;;;7.90;99.90;;;;;;5114277;28;20042;-74
2022/01/29 02:28:33;;;;;;;19.92;12.05;;;7.90;99.90;;;;;;5114304;28;20037;-75
2022/01/29 02:31:02;;;;;;;25.83;11.10;;;7.90;99.90;;;;;;5114771;28;20593;-75
2022/01/29 02:33:29;;;;;;;26.35;12.20;;;8.00;99.90;;;;;;5114945;28;20035;-74
2022/01/29 02:35:56;;;;;;;26.90;12.38;;;8.00;99.90;;;;;;5118297;28;20090;-75
2022/01/29 02:38:24;;;;;;;19.98;10.63;;;8.00;99.90;;;;;;5117891;28;20024;-75
2022/01/29 02:40:57;;;;;;;25.08;12.00;;;8.00;99.90;;;;;;5114354;28;20031;-74
2022/01/29 02:43:27;;;;;;;28.08;11.30;;;8.00;99.90;;;;;;5115441;28;20050;-75
2022/01/29 02:45:53;;;;;;;23.73;10.90;;;8.10;99.90;;;;;;5117419;28;20020;-75
2022/01/29 02:48:21;;;;;;;23.20;10.88;;;8.10;99.90;;;;;;5118486;28;20028;-75
2022/01/29 02:50:47;;;;;;;26.08;12.10;;;8.10;99.90;;;;;;5116970;28;20024;-74
2022/01/29 02:53:16;;;;;;;24.55;10.60;;;8.10;99.90;;;;;;5113630;28;20495;-74
2022/01/29 02:55:42;;;;;;;22.10;9.80;;;8.20;99.90;;;;;;5113523;28;20020;-75
2022/01/29 02:58:08;;;;;;;28.25;11.55;;;8.20;99.90;;;;;;5113935;28;20061;-74
2022/01/29 03:00:34;;;;;;;21.70;9.52;;;8.20;99.90;;;;;;5114260;28;20055;-75
2022/01/29 03:03:00;;;;;;;27.08;8.82;;;8.10;99.90;;;;;;5113141;28;20024;-74
2022/01/29 03:05:26;;;;;;;28.85;10.88;;;8.20;99.90;;;;;;5113480;28;20026;-75
2022/01/29 03:07:51;;;;;;;32.00;11.45;;;8.20;99.90;;;;;;5113600;28;20039;-75
2022/01/29 03:10:17;;;;;;;25.60;10.15;;;8.20;99.90;;;;;;5112605;28;20020;-75
2022/01/29 03:12:43;;;;;;;18.30;8.50;;;8.20;99.90;;;;;;5113866;28;20107;-75
2022/01/29 03:15:10;;;;;;;23.05;10.38;;;8.20;99.90;;;;;;5113440;28;20031;-73
2022/01/29 03:17:36;;;;;;;17.80;10.18;;;8.30;99.90;;;;;;5112738;28;20057;-75
2022/01/29 03:20:05;;;;;;;28.67;11.20;;;8.20;99.90;;;;;;5113345;28;20028;-75
2022/01/29 03:22:31;;;;;;;24.23;9.85;;;8.30;99.90;;;;;;5113273;28;20038;-75
2022/01/29 03:24:56;;;;;;;32.40;9.70;;;8.20;99.90;;;;;;5112944;28;20065;-75
2022/01/29 03:27:22;;;;;;;25.85;11.63;;;8.20;99.90;;;;;;5113907;28;20032;-74
2022/01/29 03:29:48;;;;;;;25.00;9.85;;;8.30;99.90;;;;;;5114150;28;20168;-75
2022/01/29 03:32:13;;;;;;;24.75;8.93;;;8.30;99.90;;;;;;5112952;28;20026;-74
2022/01/29 03:34:39;;;;;;;19.17;8.55;;;8.30;99.90;;;;;;5113864;28;20037;-74
2022/01/29 03:37:05;;;;;;;27.52;9.40;;;8.30;99.90;;;;;;5113433;28;20076;-74
2022/01/29 03:39:33;;;;;;;29.55;10.15;;;8.40;99.90;;;;;;5113338;28;20035;-74
2022/01/29 03:42:03;;;;;;;30.25;10.80;;;8.30;99.90;;;;;;5113359;28;20036;-74
2022/01/29 03:44:29;;;;;;;20.70;9.82;;;8.40;99.90;;;;;;5112595;28;20027;-75
2022/01/29 03:46:54;;;;;;;17.30;9.27;;;8.40;99.90;;;;;;5113357;28;20035;-75
2022/01/29 03:49:22;;;;;;;23.33;10.80;;;8.40;99.90;;;;;;5112716;28;20023;-73
2022/01/29 03:51:48;;;;;;;25.75;10.63;;;8.40;99.90;;;;;;5112149;28;20031;-74
2022/01/29 03:54:14;;;;;;;22.70;9.88;;;8.40;99.90;;;;;;5112619;28;20023;-74
2022/01/29 03:56:39;;;;;;;33.45;14.32;;;8.50;99.90;;;;;;5113039;28;20026;-74
2022/01/29 03:59:05;;;;;;;17.10;8.65;;;8.50;99.90;;;;;;5112597;28;20463;-74
2022/01/29 04:01:31;;;;;;;25.10;10.45;;;8.50;99.90;;;;;;5112729;28;20051;-74
2022/01/29 04:03:57;;;;;;;22.58;9.35;;;8.50;99.90;;;;;;5113111;28;20523;-74
2022/01/29 04:06:26;;;;;;;24.42;10.07;;;8.50;99.90;;;;;;5112562;28;20033;-74
2022/01/29 04:08:52;;;;;;;29.38;9.50;;;8.50;99.90;;;;;;5113555;28;20019;-74
2022/01/29 04:11:18;;;;;;;22.48;9.25;;;8.50;99.90;;;;;;5113492;28;20031;-74
2022/01/29 04:13:50;;;;;;;24.42;10.57;;;8.50;99.90;;;;;;5112329;28;20059;-74
2022/01/29 04:16:17;;;;;;;20.90;8.27;;;8.50;99.90;;;;;;5112810;28;20369;-73
2022/01/29 04:18:43;;;;;;;29.60;9.07;;;8.60;99.90;;;;;;5112576;28;20016;-75
2022/01/29 04:21:09;;;;;;;23.40;8.85;;;8.60;99.90;;;;;;5112790;28;20038;-74
2022/01/29 04:23:35;;;;;;;19.67;8.05;;;8.60;99.90;;;;;;5112970;28;20072;-74
2022/01/29 04:26:02;;;;;;;25.75;8.90;;;8.60;99.90;;;;;;5112889;28;20023;-74
2022/01/29 04:28:32;;;;;;;19.75;8.95;;;8.60;99.90;;;;;;5111746;28;20026;-75
2022/01/29 04:31:02;;;;;;;19.13;8.88;;;8.60;99.90;;;;;;5112506;28;20027;-74
2022/01/29 04:33:28;;;;;;;19.23;7.85;;;8.60;99.90;;;;;;5113327;28;20038;-73
2022/01/29 04:35:55;;;;;;;14.52;7.93;;;8.70;99.90;;;;;;5119334;28;20027;-75
2022/01/29 04:38:21;;;;;;;27.00;8.85;;;8.70;99.90;;;;;;5123143;28;20443;-75
2022/01/29 04:40:46;;;;;;;22.83;9.05;;;8.70;99.90;;;;;;5116778;28;20076;-75
2022/01/29 04:43:12;;;;;;;14.18;8.52;;;8.70;99.90;;;;;;5117374;28;20023;-75
2022/01/29 04:45:39;;;;;;;17.52;8.35;;;8.70;99.90;;;;;;5116595;28;20020;-76
2022/01/29 04:48:04;;;;;;;13.48;7.68;;;8.70;99.90;;;;;;5118086;28;20077;-75
2022/01/29 04:50:33;;;;;;;23.75;8.10;;;8.70;99.90;;;;;;5116737;28;20024;-75
2022/01/29 04:53:01;;;;;;;20.40;8.68;;;8.70;99.90;;;;;;5118133;28;20486;-75
2022/01/29 04:55:27;;;;;;;22.15;7.47;;;8.70;99.90;;;;;;5115710;28;20513;-76
2022/01/29 04:57:52;;;;;;;21.48;8.32;;;8.80;99.90;;;;;;5116751;28;20047;-75
2022/01/29 05:00:21;;;;;;;22.15;8.73;;;8.70;99.90;;;;;;5116009;28;20053;-76
2022/01/29 05:02:53;;;;;;;22.55;7.43;;;8.80;99.90;;;;;;5115374;28;20036;-75
2022/01/29 05:05:20;;;;;;;18.13;8.43;;;8.80;99.90;;;;;;5116003;28;20024;-75
2022/01/29 05:07:45;;;;;;;18.90;7.97;;;8.80;99.90;;;;;;5116018;28;20034;-75
2022/01/29 05:10:12;;;;;;;19.42;6.22;;;8.80;99.90;;;;;;5115059;28;20023;-75
2022/01/29 05:13:23;;;;;;;21.10;7.78;;;8.80;99.90;;;;;;5116179;28;20035;-75
2022/01/29 05:15:43;;;;;;;18.40;7.05;;;8.80;99.90;;;;;;5104694;28;20587;-75
2022/01/29 05:29:09;;;;;;;15.63;6.97;;;8.80;99.90;;;;;;5115365;28;20066;-75
2022/01/29 05:31:35;;;;;;;18.55;7.88;;;8.80;99.90;;;;;;5114879;28;20040;-75
2022/01/29 05:34:01;;;;;;;11.07;5.82;;;8.80;99.90;;;;;;5115706;28;20031;-75
2022/01/29 05:36:27;;;;;;;14.70;5.28;;;8.80;99.90;;;;;;5115271;28;20059;-74
2022/01/29 05:38:53;;;;;;;18.42;6.78;;;8.80;99.90;;;;;;5114628;28;20058;-74
2022/01/29 05:41:18;;;;;;;17.40;7.00;;;8.80;99.90;;;;;;5115539;28;20061;-75
2022/01/29 05:43:45;;;;;;;17.33;6.03;;;8.80;99.90;;;;;;5114867;28;20023;-75
2022/01/29 05:46:15;;;;;;;13.88;5.63;;;8.90;99.90;;;;;;5114674;28;20031;-75
2022/01/29 05:48:41;;;;;;;26.20;5.70;;;8.90;99.90;;;;;;5116047;28;20019;-75
2022/01/29 05:51:07;;;;;;;17.10;6.93;;;8.90;99.90;;;;;;5114902;28;20434;-75
2022/01/29 05:53:34;;;;;;;14.05;6.15;;;8.90;99.90;;;;;;5115724;28;20024;-75
2022/01/29 05:55:59;;;;;;;14.93;6.32;;;8.90;99.90;;;;;;5115582;28;20111;-75
2022/01/29 05:58:25;;;;;;;14.35;6.30;;;8.90;99.90;;;;;;5114283;28;20452;-75
2022/01/29 06:00:51;;;;;;;12.93;5.82;;;8.90;99.90;;;;;;5115000;28;20054;-74
2022/01/29 06:03:16;;;;;;;17.80;6.13;;;9.00;99.90;;;;;;5115501;28;20051;-76
2022/01/29 06:05:42;;;;;;;11.77;6.47;;;9.00;99.90;;;;;;5114192;28;20038;-75
2022/01/29 06:08:07;;;;;;;13.57;6.30;;;9.00;99.90;;;;;;5114536;28;20107;-75
2022/01/29 06:10:33;;;;;;;16.73;7.07;;;9.00;99.90;;;;;;5114974;28;20108;-75
2022/01/29 06:13:10;;;;;;;19.60;6.45;;;9.00;99.90;;;;;;5114185;28;20027;-74
2022/01/29 06:15:42;;;;;;;17.13;7.10;;;9.00;99.90;;;;;;5115057;28;20161;-75
2022/01/29 06:18:12;;;;;;;16.83;6.80;;;9.00;99.90;;;;;;5114979;28;20023;-74
2022/01/29 06:20:38;;;;;;;17.50;7.30;;;9.00;99.90;;;;;;5114437;28;20399;-75
2022/01/29 06:23:04;;;;;;;18.10;6.47;;;9.00;99.90;;;;;;5115575;28;20035;-75
2022/01/29 06:25:30;;;;;;;19.17;7.78;;;9.00;99.90;;;;;;5115107;28;20020;-75
2022/01/29 06:27:55;;;;;;;14.18;6.68;;;9.00;99.90;;;;;;5114208;28;20027;-75
2022/01/29 06:30:21;;;;;;;18.88;7.75;;;9.00;99.90;;;;;;5114616;28;20051;-74
2022/01/29 06:32:47;;;;;;;24.70;8.02;;;8.90;99.90;;;;;;5115401;28;20110;-74
2022/01/29 06:35:12;;;;;;;14.80;7.20;;;8.90;99.90;;;;;;5113439;28;20120;-74
2022/01/29 06:37:38;;;;;;;20.45;6.43;;;8.90;99.90;;;;;;5116856;28;20028;-75
2022/01/29 06:40:04;;;;;;;14.50;6.97;;;9.00;99.90;;;;;;5120566;28;20204;-74
2022/01/29 06:42:30;;;;;;;11.68;5.78;;;8.90;99.90;;;;;;5115323;28;20074;-74
2022/01/29 06:44:56;;;;;;;20.70;6.93;;;8.90;99.90;;;;;;5114920;28;20024;-74
2022/01/29 06:47:21;;;;;;;19.85;7.32;;;9.00;99.90;;;;;;5113787;28;20027;-75
2022/01/29 06:49:47;;;;;;;15.07;6.40;;;9.00;99.90;;;;;;5117568;28;20106;-74
2022/01/29 06:52:12;;;;;;;20.83;7.90;;;9.00;99.90;;;;;;5114541;28;20108;-74
2022/01/29 06:54:38;;;;;;;15.23;7.30;;;9.00;99.90;;;;;;5116573;28;20039;-75
2022/01/29 06:57:04;;;;;;;13.35;5.68;;;8.90;99.90;;;;;;5114548;28;20019;-74
2022/01/29 06:59:32;;;;;;;20.20;6.25;;;9.00;99.90;;;;;;5114639;28;20126;-74
2022/01/29 07:01:58;;;;;;;16.92;6.57;;;9.00;99.90;;;;;;5114060;28;20062;-74
2022/01/29 07:04:23;;;;;;;14.73;5.80;;;9.00;99.90;;;;;;5114580;28;20519;-74
2022/01/29 07:06:49;;;;;;;18.83;5.50;;;9.00;99.90;;;;;;5113929;28;20096;-74
2022/01/29 07:09:14;;;;;;;10.48;5.95;;;9.00;99.90;;;;;;5114056;28;20063;-74
2022/01/29 07:11:44;;;;;;;14.07;6.50;;;9.00;99.90;;;;;;5114935;28;20031;-74
2022/01/29 07:14:16;;;;;;;14.93;5.22;;;9.00;99.90;;;;;;5120751;27;20027;-75
2022/01/29 07:16:43;;;;;;;10.50;7.05;;;9.10;99.90;;;;;;5097053;28;20029;-75
2022/01/29 07:19:09;;;;;;;14.07;6.60;;;9.10;99.90;;;;;;5118125;27;20416;-74
2022/01/29 07:21:34;;;;;;;16.58;5.50;;;9.10;99.90;;;;;;5114214;27;20045;-74
2022/01/29 07:24:00;;;;;;;11.82;4.97;;;9.10;99.90;;;;;;5112274;27;20023;-74
2022/01/29 07:26:26;;;;;;;17.25;5.55;;;9.20;99.90;;;;;;5112106;27;20564;-74
2022/01/29 07:28:52;;;;;;;17.55;6.72;;;9.20;99.90;;;;;;5112192;28;20024;-74
2022/01/29 07:31:17;;;;;;;18.00;6.10;;;9.20;99.90;;;;;;5113926;27;20081;-74
2022/01/29 07:33:43;;;;;;;15.32;5.78;;;9.20;99.90;;;;;;5111865;28;20016;-74
2022/01/29 07:36:08;;;;;;;24.67;6.13;;;9.20;99.90;;;;;;5113268;27;20494;-74
2022/01/29 07:38:34;;;;;;;18.73;6.57;;;9.20;99.90;;;;;;5112810;27;20102;-75
2022/01/29 07:41:00;;;;;;;12.27;4.75;;;9.30;99.90;;;;;;5112200;28;20059;-74
2022/01/29 07:43:26;;;;;;;13.73;6.55;;;9.30;99.90;;;;;;5111480;28;20047;-74
2022/01/29 07:45:51;;;;;;;16.10;5.45;;;9.30;99.90;;;;;;5114727;27;20109;-74
2022/01/29 07:48:17;;;;;;;18.35;6.38;;;9.30;99.90;;;;;;5111947;28;20036;-75
2022/01/29 07:50:43;;;;;;;19.10;6.40;;;9.30;99.90;;;;;;5114277;27;20030;-74
2022/01/29 07:53:08;;;;;;;17.70;6.07;;;9.30;99.90;;;;;;5113731;27;20015;-74
2022/01/29 07:55:34;;;;;;;15.27;6.35;;;9.30;99.90;;;;;;5112235;28;20020;-74
2022/01/29 07:58:05;;;;;;;13.57;5.63;;;9.30;99.90;;;;;;5111137;28;20054;-74
2022/01/29 08:00:30;;;;;;;16.80;6.10;;;9.30;99.90;;;;;;5111631;28;20048;-75
2022/01/29 08:02:56;;;;;;;18.92;6.32;;;9.30;99.90;;;;;;5114178;27;20127;-75
2022/01/29 08:05:21;;;;;;;16.08;6.53;;;9.30;99.90;;;;;;5110553;28;20480;-75
2022/01/29 08:07:47;;;;;;;30.77;8.18;;;9.40;99.90;;;;;;5111180;28;20107;-75
2022/01/29 08:10:12;;;;;;;26.08;7.10;;;9.40;99.90;;;;;;5111036;28;20043;-76
2022/01/29 08:12:38;;;;;;;12.70;4.60;;;9.40;99.90;;;;;;5111473;28;20020;-76
2022/01/29 08:15:04;;;;;;;18.48;6.22;;;9.40;99.90;;;;;;5114965;28;20028;-77
2022/01/29 08:17:30;;;;;;;21.13;5.47;;;9.40;99.90;;;;;;5117000;28;20429;-77
2022/01/29 08:19:57;;;;;;;16.60;5.72;;;9.40;99.90;;;;;;5113587;28;20076;-77
2022/01/29 08:22:23;;;;;;;14.23;5.22;;;9.50;99.90;;;;;;5111882;28;20050;-77
2022/01/29 08:24:49;;;;;;;19.33;5.95;;;9.40;99.90;;;;;;5112316;28;20020;-77
2022/01/29 08:27:15;;;;;;;16.55;5.05;;;9.50;99.90;;;;;;5111242;28;20102;-77
2022/01/29 08:29:40;;;;;;;14.85;4.90;;;9.50;99.90;;;;;;5115695;28;20060;-77
2022/01/29 08:32:06;;;;;;;18.13;4.97;;;9.60;99.90;;;;;;5111684;28;20438;-84
2022/01/29 08:34:32;;;;;;;22.90;5.97;;;9.60;99.90;;;;;;5114502;28;20024;-83
2022/01/29 08:37:01;;;;;;;12.05;4.60;;;9.60;99.90;;;;;;5114617;28;20498;-83
2022/01/29 08:39:27;;;;;;;15.82;4.53;;;9.70;99.90;;;;;;5115326;28;20020;-83
2022/01/29 08:41:53;;;;;;;10.88;4.78;;;9.70;99.90;;;;;;5116246;28;20313;-83
2022/01/29 08:44:18;;;;;;;16.77;3.92;;;9.70;99.90;;;;;;5115292;28;20316;-85
2022/01/29 08:46:44;;;;;;;8.60;4.28;;;9.60;99.90;;;;;;5113325;28;20020;-84
2022/01/29 08:49:09;;;;;;;19.42;4.70;;;9.70;99.90;;;;;;5112349;28;20149;-83
2022/01/29 08:51:35;;;;;;;18.15;4.28;;;9.70;99.90;;;;;;5114937;28;20041;-81
2022/01/29 08:54:01;;;;;;;9.48;4.15;;;9.70;99.90;;;;;;5114120;28;20463;-80
2022/01/29 08:56:27;;;;;;;9.20;3.30;;;9.70;99.90;;;;;;5113602;28;20118;-80
2022/01/29 08:58:52;;;;;;;11.43;3.42;;;9.80;99.90;;;;;;5113345;28;20050;-80
2022/01/29 09:01:18;;;;;;;15.30;3.78;;;9.80;99.90;;;;;;5113001;28;20044;-80
2022/01/29 09:03:44;;;;;;;13.23;3.35;;;9.80;99.90;;;;;;5114553;28;20020;-79
2022/01/29 09:06:10;;;;;;;16.73;3.90;;;9.80;99.90;;;;;;5111816;28;20028;-80
2022/01/29 09:08:40;;;;;;;10.05;2.92;;;9.80;99.90;;;;;;5113378;28;20020;-82
2022/01/29 09:11:07;;;;;;;7.38;3.10;;;9.80;99.90;;;;;;5113701;28;20024;-79
2022/01/29 09:13:32;;;;;;;8.25;3.38;;;9.80;99.90;;;;;;5112791;28;20024;-78
2022/01/29 09:15:58;;;;;;;7.65;2.47;;;9.70;99.90;;;;;;5112438;28;20031;-82
2022/01/29 09:18:25;;;;;;;12.73;4.60;;;9.70;99.90;;;;;;5113491;28;20386;-78
2022/01/29 09:20:51;;;;;;;15.60;2.75;;;9.70;99.90;;;;;;5114651;28;20035;-85
2022/01/29 09:23:16;;;;;;;12.80;3.28;;;9.80;99.90;;;;;;5116727;28;20135;-78
2022/01/29 09:25:45;;;;;;;9.20;2.60;;;9.80;99.90;;;;;;5117665;28;20024;-80
2022/01/29 09:28:12;;;;;;;12.55;3.28;;;9.70;99.90;;;;;;5116312;28;20024;-81
2022/01/29 09:30:38;;;;;;;12.35;2.90;;;9.70;99.90;;;;;;5116379;28;20015;-82
2022/01/29 09:33:04;;;;;;;14.70;2.88;;;9.80;99.90;;;;;;5117425;28;20187;-77
2022/01/29 09:35:30;;;;;;;13.55;2.53;;;9.80;99.90;;;;;;5126292;28;20030;-79
2022/01/29 09:37:55;;;;;;;8.75;2.60;;;9.90;99.90;;;;;;5128415;28;20034;-81
2022/01/29 09:40:21;;;;;;;7.22;2.17;;;9.90;99.90;;;;;;5122691;28;20104;-82
2022/01/29 09:42:50;;;;;;;19.75;3.72;;;9.90;99.90;;;;;;5117108;27;20114;-81
2022/01/29 09:45:18;;;;;;;7.28;2.60;;;9.90;99.90;;;;;;5116842;28;20083;-82
2022/01/29 09:47:46;;;;;;;13.48;2.63;;;10.00;99.90;;;;;;5118416;28;20475;-82
2022/01/29 09:50:14;;;;;;;12.57;2.90;;;10.00;99.90;;;;;;5138219;27;20079;-83
2022/01/29 09:52:41;;;;;;;9.40;2.58;;;10.10;99.90;;;;;;5139122;27;20034;-82
2022/01/29 09:55:07;;;;;;;12.15;3.05;;;10.10;99.90;;;;;;5130774;27;20023;-82
2022/01/29 09:57:33;;;;;;;6.38;2.25;;;10.20;99.90;;;;;;5119001;27;20087;-80
2022/01/29 09:59:59;;;;;;;11.50;2.42;;;10.20;99.90;;;;;;5115953;28;20092;-81
2022/01/29 10:02:25;;;;;;;13.57;2.47;;;10.20;99.90;;;;;;5115284;27;20036;-81
2022/01/29 10:04:54;;;;;;;15.40;3.47;;;10.20;99.90;;;;;;5116256;28;20016;-82
2022/01/29 10:07:24;;;;;;;14.32;3.08;;;10.20;99.90;;;;;;5117144;28;20431;-82
2022/01/29 10:09:50;;;;;;;14.57;3.97;;;10.30;99.90;;;;;;5116308;28;20027;-81
2022/01/29 10:12:27;;;;;;;12.68;2.20;;;10.30;99.90;;;;;;5115620;28;20038;-83
2022/01/29 10:14:57;;;;;;;13.57;3.50;;;10.40;99.90;;;;;;5116162;28;20028;-77
2022/01/29 10:17:43;;;;;;;18.52;2.50;;;10.40;99.90;;;;;;5115172;28;20059;-81
2022/01/29 10:20:12;;;;;;;10.95;2.40;;;10.40;99.90;;;;;;5115879;28;20042;-83
2022/01/29 10:22:39;;;;;;;10.05;1.88;;;10.50;99.90;;;;;;5116712;28;20483;-80
2022/01/29 10:25:26;;;;;;;8.65;2.20;;;10.50;99.90;;;;;;5117492;27;20366;-81
2022/01/29 10:28:09;;;;;;;9.07;1.75;;;10.50;99.90;;;;;;5133750;27;20036;-80
2022/01/29 10:30:37;;;;;;;5.93;1.67;;;10.60;99.90;;;;;;5117370;27;20490;-79
2022/01/29 10:33:39;;;;;;;14.88;2.67;;;10.60;99.90;;;;;;5115132;28;20429;-79
2022/01/29 10:36:09;;;;;;;6.93;1.65;;;10.60;99.90;;;;;;5092606;28;20554;-79
2022/01/29 10:38:41;;;;;;;7.80;2.25;;;10.70;99.90;;;;;;5112409;28;20444;-80
2022/01/29 10:41:24;;;;;;;13.00;1.70;;;10.60;99.90;;;;;;5114919;28;20027;-77
2022/01/29 10:44:11;;;;;;;4.65;1.33;;;10.70;99.90;;;;;;5115891;28;20024;-81
2022/01/29 10:46:46;;;;;;;12.85;2.42;;;10.80;99.90;;;;;;5115035;28;20102;-80
2022/01/29 10:49:27;;;;;;;11.88;2.95;;;10.90;99.90;;;;;;5115334;28;20024;-81
2022/01/29 10:52:08;;;;;;;9.43;2.35;;;10.90;99.90;;;;;;5115450;28;20107;-81
2022/01/29 10:54:42;;;;;;;10.52;3.33;;;9.90;99.90;;;;;;5114560;28;20020;-81
2022/01/29 10:57:09;;;;;;;10.00;1.92;;;10.90;99.90;;;;;;5118132;27;20027;-81
2022/01/29 10:59:45;;;;;;;9.30;2.00;;;11.00;99.90;;;;;;5135325;27;20027;-82
2022/01/29 11:02:12;;;;;;;5.53;2.10;;;11.00;99.90;;;;;;5129879;27;20463;-84
2022/01/29 11:04:41;;;;;;;6.07;1.88;;;12.10;99.90;;;;;;5128553;27;20067;-84
2022/01/29 11:07:14;;;;;;;9.32;2.15;;;11.10;99.90;;;;;;5134383;27;20539;-82
2022/01/29 11:09:45;;;;;;;7.30;2.10;;;11.10;99.90;;;;;;5120210;27;20027;-82
2022/01/29 11:12:16;;;;;;;12.52;2.80;;;11.00;99.90;;;;;;5117436;27;20030;-81
2022/01/29 11:14:42;;;;;;;7.07;2.25;;;11.00;99.90;;;;;;5132505;27;20015;-80
2022/01/29 11:17:09;;;;;;;10.07;2.03;;;11.00;99.90;;;;;;5132939;27;20031;-80
2022/01/29 11:19:35;;;;;;;6.18;1.58;;;11.10;99.90;;;;;;5131619;27;20413;-81
2022/01/29 11:22:05;;;;;;;6.85;2.05;;;11.00;99.90;;;;;;5133746;27;20076;-79
2022/01/29 11:24:32;;;;;;;9.02;1.95;;;11.00;99.90;;;;;;5133987;27;20058;-81
2022/01/29 11:26:58;;;;;;;9.02;2.22;;;11.00;99.90;;;;;;5129076;27;20027;-79
2022/01/29 11:29:32;;;;;;;6.55;1.75;;;11.00;99.90;;;;;;5128416;27;20023;-80
2022/01/29 11:32:23;;;;;;;6.75;2.45;;;11.00;99.90;;;;;;5133256;27;20497;-80
2022/01/29 11:35:05;;;;;;;6.75;1.77;;;10.90;99.90;;;;;;5130133;27;20378;-74
2022/01/29 11:37:57;;;;;;;9.93;2.38;;;10.90;99.90;;;;;;5132743;27;20027;-77
2022/01/29 11:40:57;;;;;;;7.85;1.60;;;11.00;99.90;;;;;;5134507;27;20443;-81
2022/01/29 11:43:28;;;;;;;4.55;1.80;;;11.10;99.90;;;;;;5124121;27;20406;-81
2022/01/29 11:46:15;;;;;;;9.43;2.28;;;11.10;99.90;;;;;;5128339;27;20027;-82
2022/01/29 11:48:53;;;;;;;7.32;2.10;;;11.10;99.90;;;;;;5132087;27;20035;-81
2022/01/29 11:51:38;;;;;;;10.60;2.58;;;11.20;99.90;;;;;;5133990;27;20495;-81
2022/01/29 11:54:04;;;;;;;10.02;2.20;;;11.30;99.90;;;;;;5133137;27;20095;-81
2022/01/29 11:56:37;;;;;;;14.00;2.00;;;11.30;99.90;;;;;;5132314;27;20023;-81
2022/01/29 11:59:20;;;;;;;7.45;2.50;;;11.40;99.90;;;;;;5132403;27;20023;-80
2022/01/29 12:01:57;;;;;;;13.77;2.50;;;11.30;99.90;;;;;;5126315;27;20035;-80
2022/01/29 12:04:50;;;;;;;8.82;2.22;;;11.30;99.90;;;;;;5117481;27;20087;-81
2022/01/29 12:07:24;;;;;;;6.13;2.17;;;11.40;99.90;;;;;;5114633;27;20042;-80
2022/01/29 12:09:52;;;;;;;5.65;2.05;;;11.30;99.90;;;;;;5120150;28;20467;-81
2022/01/29 12:12:20;;;;;;;6.95;1.60;;;11.30;99.90;;;;;;5124305;27;20042;-81
2022/01/29 12:14:48;;;;;;;7.97;3.10;;;11.30;99.90;;;;;;5132870;27;20024;-80
2022/01/29 12:17:49;;;;;;;7.38;2.47;;;11.20;99.90;;;;;;5133116;27;20096;-80
2022/01/29 12:20:20;;;;;;;7.95;2.08;;;11.20;99.90;;;;;;5117003;28;20027;-80
2022/01/29 12:22:47;;;;;;;10.77;2.58;;;11.20;99.90;;;;;;5114060;28;20370;-81
2022/01/29 12:25:18;;;;;;;2.80;1.25;;;11.30;99.90;;;;;;5111322;28;20016;-80
2022/01/29 12:27:51;;;;;;;11.75;2.28;;;11.30;99.90;;;;;;5112192;28;20019;-79
2022/01/29 12:30:25;;;;;;;10.23;1.55;;;11.30;99.90;;;;;;5117367;28;20024;-81
2022/01/29 12:33:15;;;;;;;9.15;2.85;;;11.40;99.90;;;;;;5113929;28;20058;-81
2022/01/29 12:35:44;;;;;;;7.30;2.15;;;11.50;99.90;;;;;;5104356;28;20024;-81
2022/01/29 12:38:18;;;;;;;7.88;2.72;;;11.40;99.90;;;;;;5111670;28;20479;-81
2022/01/29 12:40:57;;;;;;;7.90;1.92;;;11.40;99.90;;;;;;5113292;28;20053;-81
2022/01/29 12:43:58;;;;;;;6.43;1.83;;;11.30;99.90;;;;;;5113264;28;20050;-80
2022/01/29 12:46:26;;;;;;;8.20;2.08;;;11.30;99.90;;;;;;5113570;28;20107;-81
2022/01/29 12:49:02;;;;;;;9.90;2.40;;;11.30;99.90;;;;;;5114234;28;20106;-80
2022/01/29 12:51:29;;;;;;;12.80;2.28;;;11.30;99.90;;;;;;5113284;28;20060;-81
2022/01/29 12:54:00;;;;;;;13.82;2.65;;;11.30;99.90;;;;;;5113310;28;20063;-80
2022/01/29 12:56:33;;;;;;;9.45;2.10;;;11.30;99.90;;;;;;5117268;28;20020;-80
2022/01/29 12:59:01;;;;;;;15.85;2.63;;;11.40;99.90;;;;;;5116831;28;20031;-79
2022/01/29 13:01:27;;;;;;;8.73;2.15;;;11.40;99.90;;;;;;5115198;28;20058;-80